createdAt,value
2019-02-14T00:00:45.112Z,26.40
2019-02-14T00:03:16.729Z,29.97
2019-02-14T00:05:48.327Z,20.23
2019-02-14T00:08:19.949Z,20.90
2019-02-14T00:10:51.462Z,21.47
2019-02-14T00:13:23.036Z,20.60
2019-02-14T00:15:54.695Z,21.40
2019-02-14T00:18:26.232Z,19.20
2019-02-14T00:20:57.866Z,26.50
2019-02-14T00:23:29.814Z,25.30
2019-02-14T00:26:01.417Z,18.57
2019-02-14T00:28:33.036Z,19.27
2019-02-14T00:31:04.646Z,17.80
2019-02-14T00:33:36.196Z,26.37
2019-02-14T00:36:07.710Z,19.10
2019-02-14T00:38:39.808Z,19.07
2019-02-14T00:41:11.389Z,19.70
2019-02-14T00:43:42.912Z,23.40
2019-02-14T00:46:14.440Z,19.50
2019-02-14T00:48:45.977Z,18.87
2019-02-14T00:51:17.502Z,21.80
2019-02-14T00:53:49.112Z,23.00
2019-02-14T00:56:20.643Z,18.00
2019-02-14T00:58:52.318Z,18.87
2019-02-14T01:01:23.820Z,20.80
2019-02-14T01:03:55.349Z,21.40
2019-02-14T01:06:26.884Z,17.23
2019-02-14T01:08:58.427Z,20.17
2019-02-14T01:11:29.952Z,23.23
2019-02-14T01:14:01.539Z,21.80
2019-02-14T01:16:33.101Z,18.77
2019-02-14T01:19:04.678Z,16.90
2019-02-14T01:21:36.294Z,15.53
2019-02-14T01:24:07.906Z,20.13
2019-02-14T01:26:39.446Z,22.97
2019-02-14T01:29:11.061Z,15.30
2019-02-14T01:31:42.822Z,20.50
2019-02-14T01:34:14.364Z,18.53
2019-02-14T01:36:45.876Z,19.73
2019-02-14T01:39:17.394Z,18.00
2019-02-14T01:41:48.959Z,22.70
2019-02-14T01:44:21.637Z,16.57
2019-02-14T01:46:53.167Z,12.77
2019-02-14T01:49:24.763Z,18.60
2019-02-14T01:51:56.306Z,17.67
2019-02-14T01:54:27.847Z,18.03
2019-02-14T01:56:59.806Z,14.73
2019-02-14T01:59:31.333Z,15.73
2019-02-14T02:02:03.035Z,19.27
2019-02-14T02:04:34.768Z,22.30
2019-02-14T02:07:07.511Z,21.77
2019-02-14T02:09:39.053Z,18.67
2019-02-14T02:12:11.066Z,16.30
2019-02-14T02:14:42.658Z,16.47
2019-02-14T02:17:14.236Z,15.37
2019-02-14T02:19:45.823Z,17.37
2019-02-14T02:22:17.481Z,15.53
2019-02-14T02:24:49.088Z,16.47
2019-02-14T02:27:21.078Z,15.73
2019-02-14T02:29:52.681Z,19.27
2019-02-14T02:32:24.283Z,17.30
2019-02-14T02:34:55.878Z,13.83
2019-02-14T02:37:27.489Z,18.33
2019-02-14T02:39:59.020Z,17.80
2019-02-14T02:42:30.618Z,16.17
2019-02-14T02:45:02.180Z,15.87
2019-02-14T02:47:33.763Z,16.63
2019-02-14T02:50:07.689Z,15.80
2019-02-14T02:52:39.291Z,18.20
2019-02-14T02:55:11.654Z,20.67
2019-02-14T02:57:43.328Z,19.90
2019-02-14T03:00:17.600Z,15.63
2019-02-14T03:02:49.137Z,12.90
2019-02-14T03:05:20.733Z,18.27
2019-02-14T03:07:52.350Z,22.07
2019-02-14T03:10:23.887Z,21.43
2019-02-14T03:12:55.440Z,22.60
2019-02-14T03:15:26.967Z,15.70
2019-02-14T03:17:58.558Z,18.63
2019-02-14T03:20:47.724Z,20.77
2019-02-14T03:23:19.292Z,17.97
2019-02-14T03:25:50.897Z,23.03
2019-02-14T03:28:22.423Z,20.03
2019-02-14T03:30:53.953Z,19.27
2019-02-14T03:33:25.491Z,15.47
2019-02-14T03:35:57.180Z,21.20
2019-02-14T03:38:28.830Z,19.00
2019-02-14T03:41:00.692Z,20.27
2019-02-14T03:43:32.261Z,17.10
2019-02-14T03:46:03.857Z,20.13
2019-02-14T03:48:35.462Z,18.30
2019-02-14T03:51:07.006Z,20.83
2019-02-14T03:53:38.529Z,16.57
2019-02-14T03:56:10.040Z,15.93
2019-02-14T03:58:41.553Z,21.90
2019-02-14T04:01:13.169Z,14.03
2019-02-14T04:03:44.696Z,16.00
2019-02-14T04:06:16.211Z,17.37
2019-02-14T04:08:47.873Z,16.67
2019-02-14T04:11:19.516Z,17.63
2019-02-14T04:13:51.031Z,23.00
2019-02-14T04:16:22.647Z,23.10
2019-02-14T04:18:54.287Z,19.10
2019-02-14T04:21:25.841Z,20.90
2019-02-14T04:23:57.449Z,20.90
2019-02-14T04:26:28.996Z,19.07
2019-02-14T04:29:00.602Z,22.60
2019-02-14T04:31:32.157Z,20.80
2019-02-14T04:34:03.891Z,25.83
2019-02-14T04:36:36.279Z,18.73
2019-02-14T04:39:08.425Z,19.33
2019-02-14T04:41:40.037Z,23.23
2019-02-14T04:44:11.834Z,25.43
2019-02-14T04:46:43.502Z,25.00
2019-02-14T04:49:15.107Z,21.00
2019-02-14T04:51:46.641Z,24.60
2019-02-14T04:54:18.166Z,23.33
2019-02-14T04:56:50.140Z,23.83
2019-02-14T04:59:21.675Z,17.77
2019-02-14T05:01:53.196Z,21.93
2019-02-14T05:04:24.715Z,26.73
2019-02-14T05:06:56.234Z,28.90
2019-02-14T05:09:27.869Z,22.10
2019-02-14T05:12:00.119Z,29.80
2019-02-14T05:14:31.928Z,22.00
2019-02-14T05:17:03.467Z,24.80
2019-02-14T05:19:34.990Z,23.80
2019-02-14T05:22:06.622Z,24.40
2019-02-14T05:24:38.242Z,30.23
2019-02-14T05:27:10.423Z,27.33
2019-02-14T05:29:41.953Z,24.47
2019-02-14T05:32:14.550Z,30.60
2019-02-14T05:34:46.216Z,30.13
2019-02-14T05:37:17.818Z,18.80
2019-02-14T05:39:49.358Z,26.10
2019-02-14T05:42:21.467Z,29.50
2019-02-14T05:44:53.068Z,31.20
2019-02-14T05:47:24.601Z,27.37
2019-02-14T05:49:56.115Z,19.20
2019-02-14T05:52:27.776Z,27.03
2019-02-14T05:54:59.314Z,31.37
2019-02-14T05:57:30.855Z,30.40
2019-02-14T06:00:02.545Z,24.43
2019-02-14T06:02:34.188Z,28.07
2019-02-14T06:05:07.052Z,28.00
2019-02-14T06:07:38.595Z,24.93
2019-02-14T06:10:11.627Z,22.43
2019-02-14T06:12:44.107Z,29.37
2019-02-14T06:15:15.626Z,39.63
2019-02-14T06:17:47.221Z,36.47
2019-02-14T06:20:18.765Z,25.10
2019-02-14T06:22:50.368Z,34.23
2019-02-14T06:25:21.972Z,27.73
2019-02-14T06:27:53.481Z,25.70
2019-02-14T06:30:25.944Z,26.63
2019-02-14T06:32:57.538Z,27.93
2019-02-14T06:35:29.093Z,33.87
2019-02-14T06:38:00.694Z,35.23
2019-02-14T06:40:32.249Z,22.40
2019-02-14T06:43:04.271Z,33.43
2019-02-14T06:45:35.884Z,35.37
2019-02-14T06:48:07.582Z,24.83
2019-02-14T06:50:39.195Z,27.10
2019-02-14T06:53:10.779Z,38.90
2019-02-14T06:55:42.345Z,30.53
2019-02-14T06:58:13.856Z,35.07
2019-02-14T07:00:45.454Z,29.20
2019-02-14T07:03:16.993Z,29.07
2019-02-14T07:05:48.600Z,31.83
2019-02-14T07:08:20.115Z,22.63
2019-02-14T07:10:51.723Z,40.23
2019-02-14T07:13:23.730Z,31.30
2019-02-14T07:15:55.266Z,31.40
2019-02-14T07:18:26.916Z,22.10
2019-02-14T07:20:58.589Z,35.60
2019-02-14T07:23:30.298Z,25.13
2019-02-14T07:26:01.829Z,36.23
2019-02-14T07:28:34.457Z,20.10
2019-02-14T07:31:07.311Z,22.60
2019-02-14T07:33:38.868Z,25.97
2019-02-14T07:36:10.383Z,21.87
2019-02-14T07:38:42.092Z,28.33
2019-02-14T07:41:13.685Z,30.63
2019-02-14T07:43:45.244Z,26.60
2019-02-14T07:46:22.513Z,28.47
2019-02-14T07:48:50.080Z,25.47
2019-02-14T07:51:21.620Z,35.53
2019-02-14T07:53:53.151Z,20.03
2019-02-14T07:56:24.662Z,29.53
2019-02-14T07:58:56.179Z,22.43
2019-02-14T08:01:28.240Z,19.43
2019-02-14T08:03:59.959Z,17.53
2019-02-14T08:06:31.488Z,24.03
2019-02-14T08:09:03.125Z,19.87
2019-02-14T08:11:34.627Z,18.33
2019-02-14T08:14:06.206Z,19.97
2019-02-14T08:16:38.197Z,19.07
2019-02-14T08:19:09.898Z,18.60
2019-02-14T08:21:41.468Z,21.80
2019-02-14T08:24:13.041Z,20.27
2019-02-14T08:26:44.668Z,19.53
2019-02-14T08:29:16.799Z,20.80
2019-02-14T08:31:48.362Z,22.90
2019-02-14T08:34:19.900Z,25.17
2019-02-14T08:36:51.660Z,28.27
2019-02-14T08:39:23.189Z,20.73
2019-02-14T08:41:54.733Z,17.63
2019-02-14T08:44:26.984Z,24.93
2019-02-14T08:46:58.537Z,25.47
2019-02-14T08:49:30.112Z,18.70
2019-02-14T08:52:01.760Z,32.33
2019-02-14T08:54:33.442Z,20.83
2019-02-14T08:57:05.067Z,24.53
2019-02-14T08:59:36.671Z,18.70
2019-02-14T09:02:08.229Z,18.00
2019-02-14T09:04:39.806Z,19.33
2019-02-14T09:07:11.699Z,16.13
2019-02-14T09:09:43.507Z,18.80
2019-02-14T09:12:15.076Z,20.93
2019-02-14T09:14:46.612Z,23.37
2019-02-14T09:17:18.158Z,18.30
2019-02-14T09:19:50.664Z,19.30
2019-02-14T09:22:22.192Z,18.70
2019-02-14T09:24:54.671Z,18.17
2019-02-14T09:27:26.345Z,20.43
2019-02-14T09:29:57.972Z,19.27
2019-02-14T09:32:29.570Z,15.60
2019-02-14T09:35:01.113Z,22.00
2019-02-14T09:37:32.700Z,21.27
2019-02-14T09:40:06.520Z,23.07
2019-02-14T09:42:38.066Z,21.13
2019-02-14T09:45:14.955Z,24.97
2019-02-14T09:47:46.537Z,20.60
2019-02-14T09:50:18.111Z,21.60
2019-02-14T09:52:49.729Z,23.93
2019-02-14T09:55:21.250Z,21.53
2019-02-14T09:57:52.798Z,21.30
2019-02-14T10:00:24.441Z,20.23
2019-02-14T10:02:56.458Z,23.40
2019-02-14T10:05:28.180Z,18.07
2019-02-14T10:07:59.713Z,25.73
2019-02-14T10:10:31.304Z,21.83
2019-02-14T10:13:02.885Z,18.83
2019-02-14T10:15:34.424Z,21.33
2019-02-14T10:18:06.031Z,30.33
2019-02-14T10:20:37.634Z,16.53
2019-02-14T10:23:09.227Z,14.60
2019-02-14T10:25:40.895Z,15.03
2019-02-14T10:28:12.421Z,15.60
2019-02-14T10:30:43.942Z,16.23
2019-02-14T10:33:15.484Z,18.87
2019-02-14T10:35:47.341Z,13.67
2019-02-14T10:38:22.342Z,15.03
2019-02-14T10:40:52.247Z,17.10
2019-02-14T10:43:23.878Z,14.50
2019-02-14T10:45:55.524Z,12.20
2019-02-14T10:48:27.513Z,13.67
2019-02-14T10:50:59.053Z,12.47
2019-02-14T10:53:30.655Z,19.87
2019-02-14T10:56:02.425Z,16.73
2019-02-14T10:58:34.240Z,16.27
2019-02-14T11:01:05.852Z,18.43
2019-02-14T11:03:37.398Z,15.60
2019-02-14T11:06:08.995Z,16.57
2019-02-14T11:08:40.531Z,18.37
2019-02-14T11:11:12.063Z,15.78
2019-02-14T11:13:43.601Z,15.03
2019-02-14T11:16:15.132Z,15.57
2019-02-14T11:18:46.731Z,16.50
2019-02-14T11:21:18.316Z,18.47
2019-02-14T11:23:49.909Z,14.10
2019-02-14T11:26:21.463Z,18.27
2019-02-14T11:28:52.989Z,19.60
2019-02-14T11:31:24.512Z,19.47
2019-02-14T11:33:56.208Z,17.40
2019-02-14T11:36:27.761Z,20.20
2019-02-14T11:38:59.288Z,14.43
2019-02-14T11:41:30.819Z,16.83
2019-02-14T11:44:02.914Z,17.00
2019-02-14T11:46:35.884Z,12.60
2019-02-14T11:49:07.465Z,17.50
2019-02-14T11:51:39.068Z,20.63
2019-02-14T11:54:11.099Z,16.80
2019-02-14T11:56:42.698Z,17.43
2019-02-14T11:59:14.299Z,14.30
2019-02-14T12:01:45.808Z,15.70
2019-02-14T12:04:17.362Z,13.13
2019-02-14T12:06:48.941Z,13.53
2019-02-14T12:09:20.582Z,13.37
2019-02-14T12:11:52.122Z,10.13
2019-02-14T12:14:23.657Z,12.27
2019-02-14T12:16:55.249Z,9.47
2019-02-14T12:19:26.865Z,9.23
2019-02-14T12:21:58.498Z,11.90
2019-02-14T12:24:30.195Z,12.83
2019-02-14T12:27:01.875Z,12.13
2019-02-14T12:29:34.755Z,12.40
2019-02-14T12:32:06.318Z,11.57
2019-02-14T12:34:37.854Z,10.23
2019-02-14T12:37:09.425Z,14.23
2019-02-14T12:39:41.924Z,14.40
2019-02-14T12:42:13.533Z,14.27
2019-02-14T12:44:45.101Z,16.53
2019-02-14T12:47:16.708Z,15.70
2019-02-14T12:49:48.366Z,18.67
2019-02-14T12:52:21.686Z,14.63
2019-02-14T12:54:53.316Z,14.37
2019-02-14T12:57:24.882Z,12.40
2019-02-14T12:59:56.424Z,15.63
2019-02-14T13:02:28.107Z,19.83
2019-02-14T13:04:59.715Z,13.53
2019-02-14T13:07:31.266Z,19.43
2019-02-14T13:10:02.921Z,16.90
2019-02-14T13:12:34.569Z,15.03
2019-02-14T13:15:11.110Z,18.93
2019-02-14T13:17:42.739Z,17.67
2019-02-14T13:20:14.267Z,17.33
2019-02-14T13:22:46.249Z,17.90
2019-02-14T13:25:19.022Z,19.83
2019-02-14T13:27:51.122Z,20.07
2019-02-14T13:30:26.962Z,20.07
2019-02-14T13:32:58.548Z,19.40
2019-02-14T13:35:30.115Z,18.10
2019-02-14T13:38:01.666Z,23.03
2019-02-14T13:40:33.248Z,20.43
2019-02-14T13:43:04.837Z,23.80
2019-02-14T13:45:38.269Z,21.43
2019-02-14T13:48:09.784Z,18.60
2019-02-14T13:50:41.395Z,22.47
2019-02-14T13:53:12.952Z,22.97
2019-02-14T13:55:44.433Z,22.43
2019-02-14T13:58:16.021Z,20.73
2019-02-14T14:00:47.657Z,21.67
2019-02-14T14:03:19.198Z,28.30
2019-02-14T14:05:50.725Z,20.47
2019-02-14T14:08:22.306Z,19.20
2019-02-14T14:10:54.008Z,24.07
2019-02-14T14:13:25.520Z,16.13
2019-02-14T14:15:57.047Z,15.30
2019-02-14T14:18:28.640Z,15.07
2019-02-14T14:21:00.169Z,20.10
2019-02-14T14:23:31.796Z,23.27
2019-02-14T14:26:03.541Z,12.17
2019-02-14T14:28:35.083Z,14.20
2019-02-14T14:31:06.657Z,21.03
2019-02-14T14:33:38.246Z,17.10
2019-02-14T14:36:09.913Z,17.27
2019-02-14T14:38:41.686Z,16.07
2019-02-14T14:41:13.286Z,16.73
2019-02-14T14:43:46.455Z,14.40
2019-02-14T14:46:19.613Z,11.93
2019-02-14T14:48:51.274Z,14.67
2019-02-14T14:51:22.887Z,16.27
2019-02-14T14:53:55.474Z,16.67
2019-02-14T14:56:27.190Z,27.63
2019-02-14T14:58:58.807Z,24.77
2019-02-14T15:01:30.421Z,21.10
2019-02-14T15:04:02.113Z,19.67
2019-02-14T15:06:33.675Z,25.03
2019-02-14T15:09:07.043Z,16.60
2019-02-14T15:11:39.198Z,26.17
2019-02-14T15:14:11.149Z,24.73
2019-02-14T15:16:42.777Z,19.10
2019-02-14T15:19:14.530Z,29.87
2019-02-14T15:21:46.219Z,20.73
2019-02-14T15:24:17.981Z,22.97
2019-02-14T15:26:49.527Z,27.03
2019-02-14T15:29:21.354Z,25.47
2019-02-14T15:31:52.975Z,29.93
2019-02-14T15:34:24.659Z,21.17
2019-02-14T15:36:56.226Z,19.70
2019-02-14T15:39:27.823Z,24.87
2019-02-14T15:41:59.487Z,28.23
2019-02-14T15:44:31.195Z,30.37
2019-02-14T15:47:02.723Z,30.00
2019-02-14T15:49:36.405Z,24.30
2019-02-14T15:52:09.510Z,23.80
2019-02-14T15:54:41.201Z,27.50
2019-02-14T15:57:12.744Z,19.30
2019-02-14T15:59:45.417Z,23.43
2019-02-14T16:02:17.247Z,26.70
2019-02-14T16:04:50.813Z,28.63
2019-02-14T16:07:22.799Z,40.73
2019-02-14T16:09:55.413Z,28.33
2019-02-14T16:12:27.357Z,28.13
2019-02-14T16:15:02.032Z,24.67
2019-02-14T16:17:35.436Z,33.23
2019-02-14T16:20:09.878Z,35.63
2019-02-14T16:22:42.472Z,27.87
2019-02-14T16:25:14.824Z,28.47
2019-02-14T16:27:48.074Z,42.77
2019-02-14T16:30:19.615Z,39.07
2019-02-14T16:32:51.254Z,39.40
2019-02-14T16:35:22.814Z,28.67
2019-02-14T16:37:54.332Z,33.73
2019-02-14T16:40:28.146Z,38.03
2019-02-14T16:42:59.251Z,28.27
2019-02-14T16:45:30.765Z,32.03
2019-02-14T16:48:02.373Z,36.97
2019-02-14T16:50:33.929Z,36.07
2019-02-14T16:53:06.158Z,33.70
2019-02-14T16:55:37.653Z,37.50
2019-02-14T16:58:09.480Z,42.70
2019-02-14T17:00:41.017Z,35.83
2019-02-14T17:03:12.668Z,37.23
2019-02-14T17:05:44.206Z,38.40
2019-02-14T17:08:15.803Z,36.60
2019-02-14T17:10:47.337Z,43.00
2019-02-14T17:13:20.219Z,28.73
2019-02-14T17:15:51.759Z,38.07
2019-02-14T17:18:23.295Z,39.17
2019-02-14T17:20:54.848Z,44.07
2019-02-14T17:23:26.542Z,34.77
2019-02-14T17:25:58.168Z,45.97
2019-02-14T17:28:29.750Z,46.03
2019-02-14T17:31:01.360Z,32.80
2019-02-14T17:33:33.018Z,46.07
2019-02-14T17:36:05.033Z,43.00
2019-02-14T17:38:36.588Z,38.47
2019-02-14T17:41:08.108Z,44.50
2019-02-14T17:43:39.669Z,31.63
2019-02-14T17:46:11.219Z,50.03
2019-02-14T17:48:42.890Z,41.83
2019-02-14T17:51:16.067Z,47.13
2019-02-14T17:53:47.683Z,46.20
2019-02-14T17:56:19.343Z,42.23
2019-02-14T17:58:50.994Z,31.30
2019-02-14T18:01:22.776Z,43.43
2019-02-14T18:03:54.390Z,46.70
2019-02-14T18:06:26.006Z,32.63
2019-02-14T18:08:57.533Z,43.23
2019-02-14T18:11:29.129Z,40.33
2019-02-14T18:14:00.662Z,31.27
2019-02-14T18:16:32.259Z,27.73
2019-02-14T18:19:06.942Z,35.80
2019-02-14T18:21:38.491Z,31.97
2019-02-14T18:24:11.095Z,33.63
2019-02-14T18:26:42.652Z,36.23
2019-02-14T18:29:14.408Z,30.33
2019-02-14T18:31:46.060Z,32.97
2019-02-14T18:34:18.975Z,41.90
2019-02-14T18:36:50.592Z,32.30
2019-02-14T18:39:22.127Z,32.73
2019-02-14T18:41:53.722Z,42.20
2019-02-14T18:44:25.566Z,49.87
2019-02-14T18:46:58.324Z,25.40
2019-02-14T18:49:29.907Z,32.43
2019-02-14T18:52:01.450Z,46.33
2019-02-14T18:54:33.074Z,37.37
2019-02-14T18:57:04.883Z,30.37
2019-02-14T18:59:36.426Z,25.37
2019-02-14T19:02:07.947Z,35.13
2019-02-14T19:04:39.531Z,33.17
2019-02-14T19:07:11.150Z,46.73
2019-02-14T19:09:42.703Z,40.97
2019-02-14T19:12:14.204Z,25.00
2019-02-14T19:14:45.745Z,33.47
2019-02-14T19:17:17.784Z,30.60
2019-02-14T19:19:49.318Z,34.50
2019-02-14T19:22:20.921Z,33.43
2019-02-14T19:24:52.469Z,31.43
2019-02-14T19:27:24.032Z,31.47
2019-02-14T19:29:55.889Z,45.00
2019-02-14T19:32:27.430Z,37.37
2019-02-14T19:34:59.183Z,33.27
2019-02-14T19:37:30.835Z,38.47
2019-02-14T19:40:02.441Z,33.23
2019-02-14T19:42:34.036Z,31.43
2019-02-14T19:45:09.163Z,29.07
2019-02-14T19:47:40.818Z,30.87
2019-02-14T19:50:14.302Z,32.03
2019-02-14T19:52:45.841Z,29.27
2019-02-14T19:55:17.495Z,36.00
2019-02-14T19:57:49.262Z,25.83
2019-02-14T20:00:21.113Z,29.10
2019-02-14T20:02:52.702Z,33.23
2019-02-14T20:05:24.358Z,35.13
2019-02-14T20:07:56.142Z,32.73
2019-02-14T20:10:27.938Z,29.13
2019-02-14T20:12:59.628Z,36.87
2019-02-14T20:15:37.145Z,32.63
2019-02-14T20:18:04.733Z,26.20
2019-02-14T20:20:36.283Z,32.53
2019-02-14T20:23:07.878Z,34.80
2019-02-14T20:25:39.488Z,23.23
2019-02-14T20:28:11.218Z,37.93
2019-02-14T20:30:42.825Z,23.10
2019-02-14T20:33:14.478Z,38.43
2019-02-14T20:35:46.093Z,36.57
2019-02-14T20:38:18.848Z,29.97
2019-02-14T20:40:50.457Z,31.67
2019-02-14T20:43:22.058Z,39.37
2019-02-14T20:45:53.576Z,27.53
2019-02-14T20:48:25.189Z,43.23
2019-02-14T20:50:56.819Z,27.83
2019-02-14T20:53:30.066Z,36.50
2019-02-14T20:56:01.857Z,30.27
2019-02-14T20:58:33.570Z,32.57
2019-02-14T21:01:06.755Z,36.50
2019-02-14T21:03:38.359Z,26.93
2019-02-14T21:06:09.976Z,26.60
2019-02-14T21:08:41.494Z,36.17
2019-02-14T21:11:13.096Z,29.20
2019-02-14T21:13:44.639Z,36.93
2019-02-14T21:16:16.227Z,29.00
2019-02-14T21:18:49.654Z,36.63
2019-02-14T21:21:21.109Z,26.40
2019-02-14T21:23:52.746Z,27.50
2019-02-14T21:26:24.263Z,37.43
2019-02-14T21:28:55.897Z,32.93
2019-02-14T21:31:27.457Z,27.57
2019-02-14T21:33:59.280Z,30.37
2019-02-14T21:36:30.974Z,34.70
2019-02-14T21:39:04.167Z,33.80
2019-02-14T21:41:37.372Z,35.93
2019-02-14T21:44:08.878Z,30.43
2019-02-14T21:46:40.562Z,33.33
2019-02-14T21:49:12.171Z,36.73
2019-02-14T21:51:43.723Z,38.10
2019-02-14T21:54:17.337Z,36.83
2019-02-14T21:56:48.690Z,38.03
2019-02-14T21:59:20.351Z,39.77
2019-02-14T22:01:52.164Z,30.50
2019-02-14T22:04:23.817Z,26.70
2019-02-14T22:06:55.385Z,34.50
2019-02-14T22:09:26.985Z,32.23
2019-02-14T22:11:58.727Z,33.03
2019-02-14T22:14:30.792Z,23.60
2019-02-14T22:17:02.362Z,32.33
2019-02-14T22:19:34.045Z,23.73
2019-02-14T22:22:05.630Z,32.33
2019-02-14T22:24:37.158Z,24.33
2019-02-14T22:27:08.753Z,29.83
2019-02-14T22:29:40.389Z,28.67
2019-02-14T22:32:12.293Z,26.60
2019-02-14T22:34:44.004Z,27.43
2019-02-14T22:37:15.705Z,31.93
2019-02-14T22:39:47.239Z,30.40
2019-02-14T22:42:18.752Z,25.67
2019-02-14T22:44:50.346Z,30.90
2019-02-14T22:47:21.968Z,36.57
2019-02-14T22:49:53.524Z,38.50
2019-02-14T22:52:25.125Z,33.07
2019-02-14T22:54:56.665Z,38.30
2019-02-14T22:57:28.200Z,31.43
2019-02-14T22:59:59.799Z,37.40
2019-02-14T23:02:31.402Z,37.30
2019-02-14T23:05:02.987Z,32.33
2019-02-14T23:07:35.814Z,26.37
2019-02-14T23:10:07.309Z,37.90
2019-02-14T23:12:39.188Z,36.73
2019-02-14T23:15:10.848Z,32.30
2019-02-14T23:17:42.731Z,32.50
2019-02-14T23:20:14.252Z,27.97
2019-02-14T23:22:45.854Z,34.20
2019-02-14T23:25:17.884Z,21.80
2019-02-14T23:27:49.611Z,32.50
2019-02-14T23:30:21.219Z,33.30
2019-02-14T23:32:52.827Z,39.57
2019-02-14T23:35:24.613Z,34.20
2019-02-14T23:37:56.174Z,30.10
2019-02-14T23:40:28.233Z,36.27
2019-02-14T23:43:04.668Z,38.13
2019-02-14T23:45:33.057Z,35.50
2019-02-14T23:48:04.669Z,27.33
2019-02-14T23:50:36.415Z,38.40
2019-02-14T23:53:07.936Z,34.77
2019-02-14T23:55:41.675Z,33.93
2019-02-14T23:58:13.276Z,36.43
